sensor_id;sensor_type;location;lat;lon;timestamp;temperature;humidity
2721;DHT22;1368;49.484;11.112;2023-04-09T00:02:12;9.80;99.90
2721;DHT22;1368;49.484;11.112;2023-04-09T00:04:38;9.80;99.90
2721;DHT22;1368;49.484;11.112;2023-04-09T00:07:04;9.80;99.90
2721;DHT22;1368;49.484;11.112;2023-04-09T00:09:30;9.70;99.90
2721;DHT22;1368;49.484;11.112;2023-04-09T00:11:56;9.60;99.90
2721;DHT22;1368;49.484;11.112;2023-04-09T00:14:22;9.70;99.90
2721;DHT22;1368;49.484;11.112;2023-04-09T00:16:48;9.70;99.90
2721;DHT22;1368;49.484;11.112;2023-04-09T00:19:14;9.70;99.90
2721;DHT22;1368;49.484;11.112;2023-04-09T00:21:39;9.70;99.90
2721;DHT22;1368;49.484;11.112;2023-04-09T00:24:05;9.60;99.90
2721;DHT22;1368;49.484;11.112;2023-04-09T00:26:31;9.60;99.90
2721;DHT22;1368;49.484;11.112;2023-04-09T00:28:57;9.70;99.90
2721;DHT22;1368;49.484;11.112;2023-04-09T00:31:22;9.70;99.90
2721;DHT22;1368;49.484;11.112;2023-04-09T00:33:48;9.60;99.90
2721;DHT22;1368;49.484;11.112;2023-04-09T00:36:13;9.70;99.90
2721;DHT22;1368;49.484;11.112;2023-04-09T00:38:39;9.70;99.90
2721;DHT22;1368;49.484;11.112;2023-04-09T00:41:05;9.70;99.90
2721;DHT22;1368;49.484;11.112;2023-04-09T00:43:30;9.80;99.90
2721;DHT22;1368;49.484;11.112;2023-04-09T00:45:57;9.80;99.90
2721;DHT22;1368;49.484;11.112;2023-04-09T00:48:23;9.80;99.90
2721;DHT22;1368;49.484;11.112;2023-04-09T00:50:48;9.80;99.90
2721;DHT22;1368;49.484;11.112;2023-04-09T00:53:15;9.70;99.90
2721;DHT22;1368;49.484;11.112;2023-04-09T00:55:40;9.60;99.90
2721;DHT22;1368;49.484;11.112;2023-04-09T00:58:06;9.50;99.90
2721;DHT22;1368;49.484;11.112;2023-04-09T01:00:32;9.50;99.90
2721;DHT22;1368;49.484;11.112;2023-04-09T01:02:58;9.60;99.90
2721;DHT22;1368;49.484;11.112;2023-04-09T01:05:33;9.60;99.90
2721;DHT22;1368;49.484;11.112;2023-04-09T01:11:15;9.70;99.90
2721;DHT22;1368;49.484;11.112;2023-04-09T01:14:06;9.60;99.90
2721;DHT22;1368;49.484;11.112;2023-04-09T01:16:34;9.70;99.90
2721;DHT22;1368;49.484;11.112;2023-04-09T01:19:09;9.70;99.90
2721;DHT22;1368;49.484;11.112;2023-04-09T01:21:37;9.60;99.90
2721;DHT22;1368;49.484;11.112;2023-04-09T01:24:18;9.60;99.90
2721;DHT22;1368;49.484;11.112;2023-04-09T01:26:58;9.60;99.90
2721;DHT22;1368;49.484;11.112;2023-04-09T01:29:30;9.60;99.90
2721;DHT22;1368;49.484;11.112;2023-04-09T01:31:56;9.40;99.90
2721;DHT22;1368;49.484;11.112;2023-04-09T01:34:25;9.50;99.90
2721;DHT22;1368;49.484;11.112;2023-04-09T01:36:55;9.40;99.90
2721;DHT22;1368;49.484;11.112;2023-04-09T01:39:22;9.40;99.90
2721;DHT22;1368;49.484;11.112;2023-04-09T01:41:49;9.40;99.90
2721;DHT22;1368;49.484;11.112;2023-04-09T01:44:16;9.40;99.90
2721;DHT22;1368;49.484;11.112;2023-04-09T01:46:42;9.30;99.90
2721;DHT22;1368;49.484;11.112;2023-04-09T01:49:09;9.30;99.90
2721;DHT22;1368;49.484;11.112;2023-04-09T01:51:35;9.30;99.90
2721;DHT22;1368;49.484;11.112;2023-04-09T01:54:01;9.40;99.90
2721;DHT22;1368;49.484;11.112;2023-04-09T01:56:27;9.40;99.90
2721;DHT22;1368;49.484;11.112;2023-04-09T01:58:52;9.30;99.90
2721;DHT22;1368;49.484;11.112;2023-04-09T02:01:31;9.30;99.90
2721;DHT22;1368;49.484;11.112;2023-04-09T02:04:02;9.20;99.90
2721;DHT22;1368;49.484;11.112;2023-04-09T02:08:59;8.70;99.90
2721;DHT22;1368;49.484;11.112;2023-04-09T02:11:26;8.50;99.90
2721;DHT22;1368;49.484;11.112;2023-04-09T02:13:53;8.30;99.90
2721;DHT22;1368;49.484;11.112;2023-04-09T02:16:21;7.90;99.90
2721;DHT22;1368;49.484;11.112;2023-04-09T02:18:55;7.70;99.90
2721;DHT22;1368;49.484;11.112;2023-04-09T02:21:26;7.80;99.90
2721;DHT22;1368;49.484;11.112;2023-04-09T02:23:53;8.00;99.90
2721;DHT22;1368;49.484;11.112;2023-04-09T02:26:18;8.20;99.90
2721;DHT22;1368;49.484;11.112;2023-04-09T02:28:44;8.30;99.90
2721;DHT22;1368;49.484;11.112;2023-04-09T02:31:09;8.30;99.90
2721;DHT22;1368;49.484;11.112;2023-04-09T02:33:35;8.30;99.90
2721;DHT22;1368;49.484;11.112;2023-04-09T02:36:01;8.20;99.90
2721;DHT22;1368;49.484;11.112;2023-04-09T02:38:26;8.20;99.90
2721;DHT22;1368;49.484;11.112;2023-04-09T02:40:52;8.00;99.90
2721;DHT22;1368;49.484;11.112;2023-04-09T02:43:17;7.80;99.90
2721;DHT22;1368;49.484;11.112;2023-04-09T02:45:43;7.70;99.90
2721;DHT22;1368;49.484;11.112;2023-04-09T02:48:08;7.60;99.90
2721;DHT22;1368;49.484;11.112;2023-04-09T02:50:34;7.50;99.90
2721;DHT22;1368;49.484;11.112;2023-04-09T02:53:00;7.30;99.90
2721;DHT22;1368;49.484;11.112;2023-04-09T02:55:25;7.30;99.90
2721;DHT22;1368;49.484;11.112;2023-04-09T02:57:51;7.20;99.90
2721;DHT22;1368;49.484;11.112;2023-04-09T03:00:17;7.10;99.90
2721;DHT22;1368;49.484;11.112;2023-04-09T03:02:42;7.10;99.90
2721;DHT22;1368;49.484;11.112;2023-04-09T03:05:08;7.00;99.90
2721;DHT22;1368;49.484;11.112;2023-04-09T03:07:34;6.90;99.90
2721;DHT22;1368;49.484;11.112;2023-04-09T03:09:59;6.90;99.90
2721;DHT22;1368;49.484;11.112;2023-04-09T03:12:25;6.90;99.90
2721;DHT22;1368;49.484;11.112;2023-04-09T03:14:51;6.70;99.90
2721;DHT22;1368;49.484;11.112;2023-04-09T03:17:16;6.50;99.90
2721;DHT22;1368;49.484;11.112;2023-04-09T03:19:42;6.30;99.90
2721;DHT22;1368;49.484;11.112;2023-04-09T03:22:07;6.30;99.90
2721;DHT22;1368;49.484;11.112;2023-04-09T03:24:33;6.10;99.90
2721;DHT22;1368;49.484;11.112;2023-04-09T03:26:58;5.90;99.90
2721;DHT22;1368;49.484;11.112;2023-04-09T03:29:24;5.70;99.90
2721;DHT22;1368;49.484;11.112;2023-04-09T03:31:50;5.70;99.90
2721;DHT22;1368;49.484;11.112;2023-04-09T03:34:15;5.70;99.90
2721;DHT22;1368;49.484;11.112;2023-04-09T03:36:41;5.50;99.90
2721;DHT22;1368;49.484;11.112;2023-04-09T03:39:06;5.10;99.90
2721;DHT22;1368;49.484;11.112;2023-04-09T03:41:32;4.90;99.90
2721;DHT22;1368;49.484;11.112;2023-04-09T03:43:58;4.80;99.90
2721;DHT22;1368;49.484;11.112;2023-04-09T03:46:23;4.70;99.90
2721;DHT22;1368;49.484;11.112;2023-04-09T03:48:49;4.70;99.90
2721;DHT22;1368;49.484;11.112;2023-04-09T03:51:16;4.60;99.90
2721;DHT22;1368;49.484;11.112;2023-04-09T03:53:42;4.70;99.90
2721;DHT22;1368;49.484;11.112;2023-04-09T03:56:08;4.90;99.90
2721;DHT22;1368;49.484;11.112;2023-04-09T03:58:34;5.10;99.90
2721;DHT22;1368;49.484;11.112;2023-04-09T04:01:00;5.10;99.90
2721;DHT22;1368;49.484;11.112;2023-04-09T04:03:26;5.10;99.90
2721;DHT22;1368;49.484;11.112;2023-04-09T04:05:52;5.10;99.90
2721;DHT22;1368;49.484;11.112;2023-04-09T04:08:17;4.90;99.90
2721;DHT22;1368;49.484;11.112;2023-04-09T04:10:43;4.90;99.90
2721;DHT22;1368;49.484;11.112;2023-04-09T04:13:08;4.70;99.90
2721;DHT22;1368;49.484;11.112;2023-04-09T04:15:41;4.70;99.90
2721;DHT22;1368;49.484;11.112;2023-04-09T04:18:07;4.70;99.90
2721;DHT22;1368;49.484;11.112;2023-04-09T04:20:32;4.60;99.90
2721;DHT22;1368;49.484;11.112;2023-04-09T04:22:58;4.60;99.90
2721;DHT22;1368;49.484;11.112;2023-04-09T04:25:24;4.50;99.90
2721;DHT22;1368;49.484;11.112;2023-04-09T04:27:49;4.40;99.90
2721;DHT22;1368;49.484;11.112;2023-04-09T04:30:15;4.40;99.90
2721;DHT22;1368;49.484;11.112;2023-04-09T04:32:40;4.40;99.90
2721;DHT22;1368;49.484;11.112;2023-04-09T04:35:06;4.40;99.90
2721;DHT22;1368;49.484;11.112;2023-04-09T04:37:32;4.40;99.90
2721;DHT22;1368;49.484;11.112;2023-04-09T04:40:00;4.30;99.90
2721;DHT22;1368;49.484;11.112;2023-04-09T04:42:25;4.20;99.90
2721;DHT22;1368;49.484;11.112;2023-04-09T04:44:51;4.30;99.90
2721;DHT22;1368;49.484;11.112;2023-04-09T04:47:17;4.30;99.90
2721;DHT22;1368;49.484;11.112;2023-04-09T04:49:43;4.40;99.90
2721;DHT22;1368;49.484;11.112;2023-04-09T04:52:09;4.40;99.90
2721;DHT22;1368;49.484;11.112;2023-04-09T04:54:34;4.40;99.90
2721;DHT22;1368;49.484;11.112;2023-04-09T04:57:00;4.50;99.90
2721;DHT22;1368;49.484;11.112;2023-04-09T04:59:26;4.40;99.90
2721;DHT22;1368;49.484;11.112;2023-04-09T05:01:51;4.30;99.90
2721;DHT22;1368;49.484;11.112;2023-04-09T05:04:17;4.30;99.90
2721;DHT22;1368;49.484;11.112;2023-04-09T05:06:42;4.30;99.90
2721;DHT22;1368;49.484;11.112;2023-04-09T05:09:08;4.30;99.90
2721;DHT22;1368;49.484;11.112;2023-04-09T05:11:34;4.40;99.90
2721;DHT22;1368;49.484;11.112;2023-04-09T05:13:59;4.90;99.90
2721;DHT22;1368;49.484;11.112;2023-04-09T05:16:25;5.40;99.90
2721;DHT22;1368;49.484;11.112;2023-04-09T05:18:51;6.00;99.90
2721;DHT22;1368;49.484;11.112;2023-04-09T05:21:17;6.60;99.90
2721;DHT22;1368;49.484;11.112;2023-04-09T05:23:42;7.00;99.90
2721;DHT22;1368;49.484;11.112;2023-04-09T05:26:08;7.30;99.90
2721;DHT22;1368;49.484;11.112;2023-04-09T05:28:33;7.70;99.90
2721;DHT22;1368;49.484;11.112;2023-04-09T05:30:59;8.40;99.90
2721;DHT22;1368;49.484;11.112;2023-04-09T05:33:24;9.00;99.90
2721;DHT22;1368;49.484;11.112;2023-04-09T05:35:50;9.40;99.90
2721;DHT22;1368;49.484;11.112;2023-04-09T05:38:16;10.20;99.90
2721;DHT22;1368;49.484;11.112;2023-04-09T05:40:41;10.60;99.90
2721;DHT22;1368;49.484;11.112;2023-04-09T05:43:08;11.00;99.90
2721;DHT22;1368;49.484;11.112;2023-04-09T05:45:34;11.10;99.90
2721;DHT22;1368;49.484;11.112;2023-04-09T05:48:00;11.20;99.90
2721;DHT22;1368;49.484;11.112;2023-04-09T05:50:26;11.60;99.90
2721;DHT22;1368;49.484;11.112;2023-04-09T05:52:51;11.40;99.90
2721;DHT22;1368;49.484;11.112;2023-04-09T05:55:17;11.40;99.90
2721;DHT22;1368;49.484;11.112;2023-04-09T05:57:42;11.70;99.90
2721;DHT22;1368;49.484;11.112;2023-04-09T06:00:10;12.20;99.90
2721;DHT22;1368;49.484;11.112;2023-04-09T06:02:35;12.60;99.90
2721;DHT22;1368;49.484;11.112;2023-04-09T06:05:01;12.80;99.90
2721;DHT22;1368;49.484;11.112;2023-04-09T06:07:26;12.60;99.90
2721;DHT22;1368;49.484;11.112;2023-04-09T06:09:54;13.30;99.90
2721;DHT22;1368;49.484;11.112;2023-04-09T06:12:20;13.30;99.90
2721;DHT22;1368;49.484;11.112;2023-04-09T06:14:47;13.80;99.90
2721;DHT22;1368;49.484;11.112;2023-04-09T06:17:12;14.30;99.90
2721;DHT22;1368;49.484;11.112;2023-04-09T06:19:38;14.80;99.90
2721;DHT22;1368;49.484;11.112;2023-04-09T06:22:04;15.10;99.90
2721;DHT22;1368;49.484;11.112;2023-04-09T06:24:33;15.70;99.70
2721;DHT22;1368;49.484;11.112;2023-04-09T06:26:59;15.90;99.40
2721;DHT22;1368;49.484;11.112;2023-04-09T06:29:25;16.60;98.90
2721;DHT22;1368;49.484;11.112;2023-04-09T06:31:50;16.50;97.90
2721;DHT22;1368;49.484;11.112;2023-04-09T06:34:16;16.60;98.00
2721;DHT22;1368;49.484;11.112;2023-04-09T06:36:41;17.20;97.40
2721;DHT22;1368;49.484;11.112;2023-04-09T06:39:08;17.50;95.70
2721;DHT22;1368;49.484;11.112;2023-04-09T06:41:33;18.20;96.00
2721;DHT22;1368;49.484;11.112;2023-04-09T06:43:59;18.40;94.50
2721;DHT22;1368;49.484;11.112;2023-04-09T06:46:25;18.60;93.80
2721;DHT22;1368;49.484;11.112;2023-04-09T06:48:50;18.60;92.80
2721;DHT22;1368;49.484;11.112;2023-04-09T06:51:16;18.50;93.20
2721;DHT22;1368;49.484;11.112;2023-04-09T06:53:41;18.70;92.80
2721;DHT22;1368;49.484;11.112;2023-04-09T06:56:07;19.30;92.20
2721;DHT22;1368;49.484;11.112;2023-04-09T06:58:33;19.60;91.20
2721;DHT22;1368;49.484;11.112;2023-04-09T07:00:58;19.10;90.50
2721;DHT22;1368;49.484;11.112;2023-04-09T07:03:24;18.30;91.00
2721;DHT22;1368;49.484;11.112;2023-04-09T07:05:52;17.70;92.60
2721;DHT22;1368;49.484;11.112;2023-04-09T07:08:18;16.90;92.70
2721;DHT22;1368;49.484;11.112;2023-04-09T07:10:44;17.10;93.30
2721;DHT22;1368;49.484;11.112;2023-04-09T07:13:11;17.30;92.80
2721;DHT22;1368;49.484;11.112;2023-04-09T07:15:37;17.10;92.80
2721;DHT22;1368;49.484;11.112;2023-04-09T07:18:03;17.60;93.50
2721;DHT22;1368;49.484;11.112;2023-04-09T07:20:28;18.50;91.80
2721;DHT22;1368;49.484;11.112;2023-04-09T07:22:54;18.90;91.00
2721;DHT22;1368;49.484;11.112;2023-04-09T07:25:20;18.50;90.20
2721;DHT22;1368;49.484;11.112;2023-04-09T07:27:45;18.50;90.80
2721;DHT22;1368;49.484;11.112;2023-04-09T07:30:11;18.10;90.50
2721;DHT22;1368;49.484;11.112;2023-04-09T07:32:37;16.60;91.80
2721;DHT22;1368;49.484;11.112;2023-04-09T07:35:04;16.90;92.10
2721;DHT22;1368;49.484;11.112;2023-04-09T07:37:30;16.40;91.70
2721;DHT22;1368;49.484;11.112;2023-04-09T07:39:55;16.50;92.90
2721;DHT22;1368;49.484;11.112;2023-04-09T07:42:21;16.80;93.40
2721;DHT22;1368;49.484;11.112;2023-04-09T07:44:47;17.30;91.70
2721;DHT22;1368;49.484;11.112;2023-04-09T07:47:12;17.90;91.90
2721;DHT22;1368;49.484;11.112;2023-04-09T07:49:38;17.90;90.60
2721;DHT22;1368;49.484;11.112;2023-04-09T07:52:04;17.20;90.70
2721;DHT22;1368;49.484;11.112;2023-04-09T07:54:30;16.20;92.00
2721;DHT22;1368;49.484;11.112;2023-04-09T07:56:57;16.20;91.70
2721;DHT22;1368;49.484;11.112;2023-04-09T07:59:23;16.20;91.80
2721;DHT22;1368;49.484;11.112;2023-04-09T08:01:49;16.10;91.90
2721;DHT22;1368;49.484;11.112;2023-04-09T08:04:14;17.20;91.70
2721;DHT22;1368;49.484;11.112;2023-04-09T08:06:40;16.90;91.00
2721;DHT22;1368;49.484;11.112;2023-04-09T08:09:06;17.50;90.10
2721;DHT22;1368;49.484;11.112;2023-04-09T08:11:32;17.80;89.40
2721;DHT22;1368;49.484;11.112;2023-04-09T08:13:57;17.90;88.20
2721;DHT22;1368;49.484;11.112;2023-04-09T08:16:26;18.10;88.00
2721;DHT22;1368;49.484;11.112;2023-04-09T08:18:52;17.80;88.70
2721;DHT22;1368;49.484;11.112;2023-04-09T08:21:18;17.70;87.80
2721;DHT22;1368;49.484;11.112;2023-04-09T08:23:44;17.80;90.00
2721;DHT22;1368;49.484;11.112;2023-04-09T08:26:09;18.50;87.70
2721;DHT22;1368;49.484;11.112;2023-04-09T08:28:35;18.30;86.00
2721;DHT22;1368;49.484;11.112;2023-04-09T08:31:01;18.10;85.00
2721;DHT22;1368;49.484;11.112;2023-04-09T08:33:26;17.60;86.10
2721;DHT22;1368;49.484;11.112;2023-04-09T08:35:52;17.00;87.20
2721;DHT22;1368;49.484;11.112;2023-04-09T08:38:18;17.10;86.30
2721;DHT22;1368;49.484;11.112;2023-04-09T08:40:43;17.20;84.20
2721;DHT22;1368;49.484;11.112;2023-04-09T08:43:09;17.50;84.00
2721;DHT22;1368;49.484;11.112;2023-04-09T08:45:40;17.60;85.60
2721;DHT22;1368;49.484;11.112;2023-04-09T08:48:08;18.60;83.50
2721;DHT22;1368;49.484;11.112;2023-04-09T08:50:35;19.00;81.30
2721;DHT22;1368;49.484;11.112;2023-04-09T08:53:04;18.50;80.50
2721;DHT22;1368;49.484;11.112;2023-04-09T08:55:31;17.80;79.40
2721;DHT22;1368;49.484;11.112;2023-04-09T08:57:59;17.50;81.40
2721;DHT22;1368;49.484;11.112;2023-04-09T09:00:25;17.20;79.90
2721;DHT22;1368;49.484;11.112;2023-04-09T09:03:20;16.70;82.20
2721;DHT22;1368;49.484;11.112;2023-04-09T09:05:47;16.90;82.90
2721;DHT22;1368;49.484;11.112;2023-04-09T09:08:22;17.10;81.20
2721;DHT22;1368;49.484;11.112;2023-04-09T09:10:48;17.00;81.70
2721;DHT22;1368;49.484;11.112;2023-04-09T09:13:24;16.80;82.20
2721;DHT22;1368;49.484;11.112;2023-04-09T09:15:51;16.60;85.10
2721;DHT22;1368;49.484;11.112;2023-04-09T09:18:20;16.80;80.50
2721;DHT22;1368;49.484;11.112;2023-04-09T09:20:46;16.60;80.60
2721;DHT22;1368;49.484;11.112;2023-04-09T09:23:12;16.60;80.40
2721;DHT22;1368;49.484;11.112;2023-04-09T09:25:38;17.10;82.80
2721;DHT22;1368;49.484;11.112;2023-04-09T09:28:10;17.30;82.20
2721;DHT22;1368;49.484;11.112;2023-04-09T09:30:37;16.50;84.10
2721;DHT22;1368;49.484;11.112;2023-04-09T09:33:08;16.60;84.70
2721;DHT22;1368;49.484;11.112;2023-04-09T09:35:50;16.70;84.10
2721;DHT22;1368;49.484;11.112;2023-04-09T09:38:16;16.80;85.50
2721;DHT22;1368;49.484;11.112;2023-04-09T09:40:43;16.40;86.80
2721;DHT22;1368;49.484;11.112;2023-04-09T09:43:08;16.70;85.40
2721;DHT22;1368;49.484;11.112;2023-04-09T09:45:35;16.90;85.50
2721;DHT22;1368;49.484;11.112;2023-04-09T09:48:03;17.50;82.10
2721;DHT22;1368;49.484;11.112;2023-04-09T09:50:29;17.90;81.70
2721;DHT22;1368;49.484;11.112;2023-04-09T09:53:06;18.40;81.40
2721;DHT22;1368;49.484;11.112;2023-04-09T09:55:32;18.80;79.80
2721;DHT22;1368;49.484;11.112;2023-04-09T09:58:01;19.00;80.50
2721;DHT22;1368;49.484;11.112;2023-04-09T10:00:31;19.90;80.90
2721;DHT22;1368;49.484;11.112;2023-04-09T10:03:00;20.90;74.60
2721;DHT22;1368;49.484;11.112;2023-04-09T10:05:30;20.90;70.80
2721;DHT22;1368;49.484;11.112;2023-04-09T10:07:57;20.10;70.70
2721;DHT22;1368;49.484;11.112;2023-04-09T10:10:25;19.10;72.00
2721;DHT22;1368;49.484;11.112;2023-04-09T10:12:51;18.80;73.50
2721;DHT22;1368;49.484;11.112;2023-04-09T10:15:18;19.00;74.10
2721;DHT22;1368;49.484;11.112;2023-04-09T10:17:44;19.40;72.40
2721;DHT22;1368;49.484;11.112;2023-04-09T10:20:14;19.20;70.80
2721;DHT22;1368;49.484;11.112;2023-04-09T10:22:46;19.10;71.90
2721;DHT22;1368;49.484;11.112;2023-04-09T10:25:13;19.20;72.80
2721;DHT22;1368;49.484;11.112;2023-04-09T10:27:39;17.60;65.30
2721;DHT22;1368;49.484;11.112;2023-04-09T10:30:05;16.80;65.00
2721;DHT22;1368;49.484;11.112;2023-04-09T10:32:34;16.40;66.20
2721;DHT22;1368;49.484;11.112;2023-04-09T10:35:02;16.60;68.00
2721;DHT22;1368;49.484;11.112;2023-04-09T10:37:28;15.90;68.80
2721;DHT22;1368;49.484;11.112;2023-04-09T10:39:54;15.60;69.10
2721;DHT22;1368;49.484;11.112;2023-04-09T10:42:22;15.60;70.30
2721;DHT22;1368;49.484;11.112;2023-04-09T10:47:37;16.50;66.80
2721;DHT22;1368;49.484;11.112;2023-04-09T10:50:20;16.90;68.30
2721;DHT22;1368;49.484;11.112;2023-04-09T10:52:47;16.40;68.40
2721;DHT22;1368;49.484;11.112;2023-04-09T10:58:07;16.50;69.20
2721;DHT22;1368;49.484;11.112;2023-04-09T11:00:37;16.40;65.20
2721;DHT22;1368;49.484;11.112;2023-04-09T11:03:21;16.70;69.50
2721;DHT22;1368;49.484;11.112;2023-04-09T11:08:22;16.80;62.00
2721;DHT22;1368;49.484;11.112;2023-04-09T11:10:48;16.80;64.50
2721;DHT22;1368;49.484;11.112;2023-04-09T11:13:15;17.30;64.90
2721;DHT22;1368;49.484;11.112;2023-04-09T11:15:42;17.80;63.30
2721;DHT22;1368;49.484;11.112;2023-04-09T11:18:07;18.20;64.80
2721;DHT22;1368;49.484;11.112;2023-04-09T11:20:39;18.40;63.70
2721;DHT22;1368;49.484;11.112;2023-04-09T11:23:05;18.40;64.50
2721;DHT22;1368;49.484;11.112;2023-04-09T11:25:32;19.10;64.70
2721;DHT22;1368;49.484;11.112;2023-04-09T11:27:59;19.30;60.70
2721;DHT22;1368;49.484;11.112;2023-04-09T11:30:26;18.90;61.40
2721;DHT22;1368;49.484;11.112;2023-04-09T11:32:53;18.40;60.20
2721;DHT22;1368;49.484;11.112;2023-04-09T11:35:20;17.30;62.90
2721;DHT22;1368;49.484;11.112;2023-04-09T11:37:47;16.70;63.60
2721;DHT22;1368;49.484;11.112;2023-04-09T11:40:17;16.80;65.40
2721;DHT22;1368;49.484;11.112;2023-04-09T11:42:44;16.90;65.40
2721;DHT22;1368;49.484;11.112;2023-04-09T11:45:11;17.30;66.60
2721;DHT22;1368;49.484;11.112;2023-04-09T11:47:38;17.50;67.30
2721;DHT22;1368;49.484;11.112;2023-04-09T11:50:07;17.70;66.80
2721;DHT22;1368;49.484;11.112;2023-04-09T11:52:33;17.20;64.70
2721;DHT22;1368;49.484;11.112;2023-04-09T11:55:03;16.70;67.40
2721;DHT22;1368;49.484;11.112;2023-04-09T11:57:40;16.30;67.10
2721;DHT22;1368;49.484;11.112;2023-04-09T12:00:08;16.60;67.00
2721;DHT22;1368;49.484;11.112;2023-04-09T12:05:09;16.80;66.20
2721;DHT22;1368;49.484;11.112;2023-04-09T12:07:37;16.80;66.10
2721;DHT22;1368;49.484;11.112;2023-04-09T12:10:09;17.40;66.90
2721;DHT22;1368;49.484;11.112;2023-04-09T12:12:42;17.10;67.20
2721;DHT22;1368;49.484;11.112;2023-04-09T12:15:21;17.60;67.00
2721;DHT22;1368;49.484;11.112;2023-04-09T12:17:54;17.60;65.50
2721;DHT22;1368;49.484;11.112;2023-04-09T12:20:28;17.40;65.90
2721;DHT22;1368;49.484;11.112;2023-04-09T12:22:54;17.30;65.50
2721;DHT22;1368;49.484;11.112;2023-04-09T12:25:20;16.40;66.80
2721;DHT22;1368;49.484;11.112;2023-04-09T12:27:45;16.30;67.70
2721;DHT22;1368;49.484;11.112;2023-04-09T12:30:11;16.50;68.50
2721;DHT22;1368;49.484;11.112;2023-04-09T12:32:36;15.70;69.10
2721;DHT22;1368;49.484;11.112;2023-04-09T12:35:03;15.50;69.70
2721;DHT22;1368;49.484;11.112;2023-04-09T12:37:29;15.20;69.60
2721;DHT22;1368;49.484;11.112;2023-04-09T12:39:54;15.10;69.60
2721;DHT22;1368;49.484;11.112;2023-04-09T12:42:20;15.00;70.60
2721;DHT22;1368;49.484;11.112;2023-04-09T12:44:46;15.20;69.00
2721;DHT22;1368;49.484;11.112;2023-04-09T12:47:11;15.30;69.10
2721;DHT22;1368;49.484;11.112;2023-04-09T12:49:37;15.10;69.50
2721;DHT22;1368;49.484;11.112;2023-04-09T12:52:03;15.10;70.10
2721;DHT22;1368;49.484;11.112;2023-04-09T12:54:29;15.10;70.70
2721;DHT22;1368;49.484;11.112;2023-04-09T12:56:55;15.50;70.50
2721;DHT22;1368;49.484;11.112;2023-04-09T12:59:20;15.50;70.20
2721;DHT22;1368;49.484;11.112;2023-04-09T13:01:46;15.80;69.80
2721;DHT22;1368;49.484;11.112;2023-04-09T13:04:11;16.30;70.20
2721;DHT22;1368;49.484;11.112;2023-04-09T13:06:37;16.20;70.30
2721;DHT22;1368;49.484;11.112;2023-04-09T13:09:03;15.60;70.30
2721;DHT22;1368;49.484;11.112;2023-04-09T13:11:28;15.00;72.60
2721;DHT22;1368;49.484;11.112;2023-04-09T13:13:54;14.90;74.50
2721;DHT22;1368;49.484;11.112;2023-04-09T13:16:20;14.90;74.30
2721;DHT22;1368;49.484;11.112;2023-04-09T13:18:45;15.20;74.20
2721;DHT22;1368;49.484;11.112;2023-04-09T13:21:11;15.30;73.80
2721;DHT22;1368;49.484;11.112;2023-04-09T13:23:39;15.60;73.50
2721;DHT22;1368;49.484;11.112;2023-04-09T13:26:05;16.00;72.50
2721;DHT22;1368;49.484;11.112;2023-04-09T13:28:30;16.50;72.70
2721;DHT22;1368;49.484;11.112;2023-04-09T13:30:56;16.90;72.00
2721;DHT22;1368;49.484;11.112;2023-04-09T13:33:22;17.00;70.70
2721;DHT22;1368;49.484;11.112;2023-04-09T13:35:48;16.80;71.50
2721;DHT22;1368;49.484;11.112;2023-04-09T13:38:13;16.80;69.80
2721;DHT22;1368;49.484;11.112;2023-04-09T13:40:39;16.20;70.80
2721;DHT22;1368;49.484;11.112;2023-04-09T13:43:05;15.90;70.60
2721;DHT22;1368;49.484;11.112;2023-04-09T13:45:30;15.30;72.30
2721;DHT22;1368;49.484;11.112;2023-04-09T13:47:56;14.90;73.60
2721;DHT22;1368;49.484;11.112;2023-04-09T13:50:22;14.40;74.30
2721;DHT22;1368;49.484;11.112;2023-04-09T13:52:47;14.10;75.30
2721;DHT22;1368;49.484;11.112;2023-04-09T13:55:13;13.90;75.60
2721;DHT22;1368;49.484;11.112;2023-04-09T13:57:38;13.80;76.70
2721;DHT22;1368;49.484;11.112;2023-04-09T14:00:05;13.80;76.70
2721;DHT22;1368;49.484;11.112;2023-04-09T14:02:31;14.20;76.10
2721;DHT22;1368;49.484;11.112;2023-04-09T14:04:57;14.60;75.30
2721;DHT22;1368;49.484;11.112;2023-04-09T14:07:22;14.50;73.60
2721;DHT22;1368;49.484;11.112;2023-04-09T14:09:49;14.50;73.90
2721;DHT22;1368;49.484;11.112;2023-04-09T14:12:15;14.60;73.70
2721;DHT22;1368;49.484;11.112;2023-04-09T14:14:41;14.70;73.60
2721;DHT22;1368;49.484;11.112;2023-04-09T14:17:07;15.10;72.90
2721;DHT22;1368;49.484;11.112;2023-04-09T14:19:32;15.40;72.60
2721;DHT22;1368;49.484;11.112;2023-04-09T14:21:58;16.10;73.60
2721;DHT22;1368;49.484;11.112;2023-04-09T14:24:23;16.00;72.90
2721;DHT22;1368;49.484;11.112;2023-04-09T14:26:49;16.00;71.70
2721;DHT22;1368;49.484;11.112;2023-04-09T14:29:17;15.90;71.30
2721;DHT22;1368;49.484;11.112;2023-04-09T14:31:43;15.80;71.50
2721;DHT22;1368;49.484;11.112;2023-04-09T14:34:09;15.30;68.00
2721;DHT22;1368;49.484;11.112;2023-04-09T14:36:35;15.00;66.90
2721;DHT22;1368;49.484;11.112;2023-04-09T14:39:00;15.00;67.70
2721;DHT22;1368;49.484;11.112;2023-04-09T14:41:26;15.10;68.70
2721;DHT22;1368;49.484;11.112;2023-04-09T14:43:51;15.20;68.80
2721;DHT22;1368;49.484;11.112;2023-04-09T14:46:17;15.10;68.80
2721;DHT22;1368;49.484;11.112;2023-04-09T14:48:44;15.30;68.50
2721;DHT22;1368;49.484;11.112;2023-04-09T14:51:10;15.60;69.10
2721;DHT22;1368;49.484;11.112;2023-04-09T14:53:36;15.30;67.80
2721;DHT22;1368;49.484;11.112;2023-04-09T14:56:02;14.80;69.50
2721;DHT22;1368;49.484;11.112;2023-04-09T14:58:28;14.70;69.90
2721;DHT22;1368;49.484;11.112;2023-04-09T15:00:53;14.70;70.80
2721;DHT22;1368;49.484;11.112;2023-04-09T15:03:19;14.80;71.00
2721;DHT22;1368;49.484;11.112;2023-04-09T15:05:46;14.70;72.00
2721;DHT22;1368;49.484;11.112;2023-04-09T15:08:12;14.60;70.90
2721;DHT22;1368;49.484;11.112;2023-04-09T15:10:37;14.60;72.20
2721;DHT22;1368;49.484;11.112;2023-04-09T15:13:03;14.70;71.40
2721;DHT22;1368;49.484;11.112;2023-04-09T15:15:29;14.80;70.50
2721;DHT22;1368;49.484;11.112;2023-04-09T15:17:54;14.90;70.80
2721;DHT22;1368;49.484;11.112;2023-04-09T15:20:20;14.90;71.70
2721;DHT22;1368;49.484;11.112;2023-04-09T15:22:46;15.00;70.90
2721;DHT22;1368;49.484;11.112;2023-04-09T15:25:11;15.20;71.80
2721;DHT22;1368;49.484;11.112;2023-04-09T15:27:37;15.60;70.50
2721;DHT22;1368;49.484;11.112;2023-04-09T15:30:03;15.80;70.30
2721;DHT22;1368;49.484;11.112;2023-04-09T15:32:29;15.00;68.30
2721;DHT22;1368;49.484;11.112;2023-04-09T15:34:55;14.80;69.20
2721;DHT22;1368;49.484;11.112;2023-04-09T15:37:21;15.30;69.40
2721;DHT22;1368;49.484;11.112;2023-04-09T15:39:47;15.70;69.30
2721;DHT22;1368;49.484;11.112;2023-04-09T15:42:12;16.10;68.40
2721;DHT22;1368;49.484;11.112;2023-04-09T15:44:44;16.30;66.50
2721;DHT22;1368;49.484;11.112;2023-04-09T15:47:10;16.30;67.10
2721;DHT22;1368;49.484;11.112;2023-04-09T15:49:36;16.60;68.20
2721;DHT22;1368;49.484;11.112;2023-04-09T15:52:01;16.70;67.90
2721;DHT22;1368;49.484;11.112;2023-04-09T15:54:27;17.30;68.70
2721;DHT22;1368;49.484;11.112;2023-04-09T15:56:52;17.10;67.30
2721;DHT22;1368;49.484;11.112;2023-04-09T15:59:18;16.20;68.20
2721;DHT22;1368;49.484;11.112;2023-04-09T16:01:43;15.90;68.90
2721;DHT22;1368;49.484;11.112;2023-04-09T16:04:09;15.80;69.20
2721;DHT22;1368;49.484;11.112;2023-04-09T16:06:37;15.90;69.80